Time;durP1;ratioP1;P1;durP2;ratioP2;P2;SDS_P1;SDS_P2;PMS_P1;PMS_P2;Temp;Humidity;BMP_temperature;BMP_pressure;BME280_temperature;BME280_humidity;BME280_pressure;Samples;Min_cycle;Max_cycle;Signal;HPM_P1;HPM_P2
2024/03/28 00:01:02;;;;;;;;;;;8.30;91.10;;;;;;5054888;28;20526;-68
2024/03/28 00:03:28;;;;;;;;;;;7.80;87.80;;;;;;5055009;28;20482;-68
2024/03/28 00:05:54;;;;;;;;;;;8.50;91.10;;;;;;5054864;28;19952;-68
2024/03/28 00:08:20;;;;;;;;;;;8.10;90.80;;;;;;5054334;28;20007;-68
2024/03/28 00:10:48;;;;;;;;;;;8.30;92.40;;;;;;5054508;28;20420;-68
2024/03/28 00:13:14;;;;;;;;;;;7.90;93.50;;;;;;5054432;28;19908;-68
2024/03/28 00:15:39;;;;;;;;;;;8.50;95.20;;;;;;5054715;28;19912;-68
2024/03/28 00:18:05;;;;;;;;;;;8.40;96.10;;;;;;5053006;28;20388;-68
2024/03/28 00:20:31;;;;;;;;;;;7.90;96.10;;;;;;5053973;28;20005;-68
2024/03/28 00:22:56;;;;;;;;;;;8.40;97.00;;;;;;5054055;28;19959;-68
2024/03/28 00:25:22;;;;;;;;;;;7.80;97.40;;;;;;5054438;28;20620;-68
2024/03/28 00:27:47;;;;;;;;;;;7.80;97.50;;;;;;5054148;28;19989;-68
2024/03/28 00:30:13;;;;;;;;;;;8.30;98.20;;;;;;5054259;28;20027;-68
2024/03/28 00:32:38;;;;;;;;;;;7.70;96.40;;;;;;5054384;28;19905;-68
2024/03/28 00:35:04;;;;;;;;;;;7.80;96.60;;;;;;5054171;28;19948;-68
2024/03/28 00:37:29;;;;;;;;;;;7.50;99.90;;;;;;5053858;28;19912;-68
2024/03/28 00:39:55;;;;;;;;;;;7.70;96.50;;;;;;5053945;28;20004;-68
2024/03/28 00:42:20;;;;;;;;;;;8.20;94.80;;;;;;5054105;28;19917;-68
2024/03/28 00:44:46;;;;;;;;;;;8.30;96.50;;;;;;5054079;28;19905;-67
2024/03/28 00:47:11;;;;;;;;;;;8.10;95.60;;;;;;5053690;28;19939;-68
2024/03/28 00:49:36;;;;;;;;;;;8.40;95.60;;;;;;5053894;28;20284;-68
2024/03/28 00:52:02;;;;;;;;;;;8.00;94.80;;;;;;5053933;28;19912;-68
2024/03/28 00:54:27;;;;;;;;;;;8.10;94.90;;;;;;5053732;28;19905;-68
2024/03/28 00:56:53;;;;;;;;;;;7.80;96.50;;;;;;5053502;28;19904;-68
2024/03/28 00:59:18;;;;;;;;;;;7.80;96.80;;;;;;5053476;28;19904;-68
2024/03/28 01:01:44;;;;;;;;;;;8.10;95.90;;;;;;5053803;28;20279;-68
2024/03/28 01:04:09;;;;;;;;;;;7.70;95.70;;;;;;5053461;28;19905;-68
2024/03/28 01:06:35;;;;;;;;;;;7.80;97.80;;;;;;5053522;28;19955;-68
2024/03/28 01:09:00;;;;;;;;;;;8.10;97.40;;;;;;5053213;28;19909;-68
2024/03/28 01:11:26;;;;;;;;;;;8.10;97.30;;;;;;5053469;28;19931;-68
2024/03/28 01:13:51;;;;;;;;;;;7.60;97.70;;;;;;5053492;28;19905;-68
2024/03/28 01:16:17;;;;;;;;;;;8.00;98.90;;;;;;5053484;28;19915;-68
2024/03/28 01:18:42;;;;;;;;;;;7.80;99.90;;;;;;5053112;28;19909;-68
2024/03/28 01:21:07;;;;;;;;;;;7.90;99.20;;;;;;5053484;28;19908;-68
2024/03/28 01:23:33;;;;;;;;;;;7.50;99.40;;;;;;5053306;28;19911;-68
2024/03/28 01:26:02;;;;;;;;;;;7.30;99.30;;;;;;5052921;28;19959;-68
2024/03/28 01:28:27;;;;;;;;;;;7.30;98.00;;;;;;5052981;28;19936;-68
2024/03/28 01:31:01;;;;;;;;;;;7.70;99.60;;;;;;5052997;28;20486;-68
2024/03/28 01:33:27;;;;;;;;;;;7.30;97.90;;;;;;5052977;28;19905;-68
2024/03/28 01:35:52;;;;;;;;;;;7.80;99.60;;;;;;5052952;28;19999;-68
2024/03/28 01:38:18;;;;;;;;;;;7.50;98.70;;;;;;5052517;28;20038;-68
2024/03/28 01:40:43;;;;;;;;;;;7.60;99.00;;;;;;5052889;28;19905;-68
2024/03/28 01:43:09;;;;;;;;;;;7.80;99.90;;;;;;5052861;28;19905;-68
2024/03/28 01:45:34;;;;;;;;;;;7.70;99.90;;;;;;5052799;28;19904;-68
2024/03/28 01:48:00;;;;;;;;;;;7.50;99.90;;;;;;5052526;28;19951;-68
2024/03/28 01:50:26;;;;;;;;;;;7.70;99.90;;;;;;5052834;28;19912;-68
2024/03/28 01:52:52;;;;;;;;;;;7.70;99.90;;;;;;5052625;28;19911;-68
2024/03/28 01:55:17;;;;;;;;;;;7.40;99.90;;;;;;5052851;28;19905;-68
2024/03/28 01:57:43;;;;;;;;;;;7.20;99.90;;;;;;5052246;28;19974;-68
2024/03/28 02:00:10;;;;;;;;;;;7.90;99.90;;;;;;5051879;28;19911;-68
2024/03/28 02:02:36;;;;;;;;;;;7.20;99.90;;;;;;5052524;28;20604;-68
2024/03/28 02:05:02;;;;;;;;;;;8.00;99.90;;;;;;5052164;28;19905;-68
2024/03/28 02:07:27;;;;;;;;;;;7.20;99.90;;;;;;5052139;28;19904;-68
2024/03/28 02:09:53;;;;;;;;;;;7.50;99.90;;;;;;5051697;28;20340;-68
2024/03/28 02:12:18;;;;;;;;;;;7.90;99.90;;;;;;5051002;28;19905;-68
2024/03/28 02:14:43;;;;;;;;;;;7.30;99.90;;;;;;5051238;28;19905;-67
2024/03/28 02:17:09;;;;;;;;;;;7.80;99.90;;;;;;5051438;28;19952;-68
2024/03/28 02:19:35;;;;;;;;;;;7.80;99.90;;;;;;5051757;28;19905;-68
2024/03/28 02:22:01;;;;;;;;;;;7.30;99.90;;;;;;5051568;28;19992;-67
2024/03/28 02:24:28;;;;;;;;;;;7.40;99.90;;;;;;5051847;28;20411;-67
2024/03/28 02:26:53;;;;;;;;;;;7.30;99.90;;;;;;5051579;28;20425;-68
2024/03/28 02:29:19;;;;;;;;;;;7.80;99.90;;;;;;5051991;28;19993;-68
2024/03/28 02:31:44;;;;;;;;;;;7.70;99.90;;;;;;5052184;28;20276;-67
2024/03/28 02:34:10;;;;;;;;;;;7.70;99.90;;;;;;5051685;28;19958;-68
2024/03/28 02:36:35;;;;;;;;;;;7.40;99.90;;;;;;5051036;28;19979;-68
2024/03/28 02:39:01;;;;;;;;;;;7.20;99.90;;;;;;5052199;28;19905;-68
2024/03/28 02:41:27;;;;;;;;;;;6.90;99.90;;;;;;5052616;28;19905;-68
2024/03/28 02:43:54;;;;;;;;;;;6.80;99.90;;;;;;5052318;28;19911;-68
2024/03/28 02:46:19;;;;;;;;;;;7.30;99.90;;;;;;5052096;28;19987;-68
2024/03/28 02:48:45;;;;;;;;;;;6.80;99.90;;;;;;5052371;28;19999;-68
2024/03/28 02:51:10;;;;;;;;;;;6.90;99.90;;;;;;5052259;28;19913;-68
2024/03/28 02:53:36;;;;;;;;;;;6.90;99.90;;;;;;5052321;28;19904;-68
2024/03/28 02:56:01;;;;;;;;;;;6.80;99.90;;;;;;5052361;28;20072;-68
2024/03/28 02:58:27;;;;;;;;;;;6.60;99.90;;;;;;5051642;28;19905;-67
2024/03/28 03:00:53;;;;;;;;;;;6.70;99.90;;;;;;5052065;28;20288;-68
2024/03/28 03:03:18;;;;;;;;;;;7.20;99.90;;;;;;5051572;28;19905;-68
2024/03/28 03:05:47;;;;;;;;;;;6.40;99.90;;;;;;5052241;28;19905;-68
2024/03/28 03:08:14;;;;;;;;;;;7.00;99.90;;;;;;5051726;28;19911;-67
2024/03/28 03:10:39;;;;;;;;;;;7.40;99.90;;;;;;5051890;28;19908;-68
2024/03/28 03:13:05;;;;;;;;;;;6.80;99.90;;;;;;5051936;28;19935;-67
2024/03/28 03:15:30;;;;;;;;;;;6.70;99.90;;;;;;5052056;28;19915;-67
2024/03/28 03:17:56;;;;;;;;;;;6.30;99.90;;;;;;5051118;28;20276;-68
2024/03/28 03:20:22;;;;;;;;;;;6.50;99.90;;;;;;5051348;28;20387;-68
2024/03/28 03:22:48;;;;;;;;;;;6.40;99.90;;;;;;5051615;28;19930;-68
2024/03/28 03:25:24;;;;;;;;;;;6.90;99.90;;;;;;5051852;28;19905;-68
2024/03/28 03:36:03;;;;;;;;;;;6.70;99.90;;;;;;5055396;28;19911;-68
2024/03/28 03:38:28;;;;;;;;;;;6.40;99.90;;;;;;5054875;28;20372;-67
2024/03/28 03:40:54;;;;;;;;;;;6.50;99.90;;;;;;5055202;28;19905;-67
2024/03/28 03:43:20;;;;;;;;;;;6.50;99.90;;;;;;5054843;28;19905;-67
2024/03/28 03:45:45;;;;;;;;;;;6.60;99.90;;;;;;5055296;28;19916;-68
2024/03/28 03:48:10;;;;;;;;;;;6.50;99.90;;;;;;5054683;28;19908;-67
2024/03/28 03:50:36;;;;;;;;;;;6.80;99.90;;;;;;5054974;28;19934;-68
2024/03/28 03:53:01;;;;;;;;;;;7.10;99.90;;;;;;5055130;28;20356;-68
2024/03/28 03:55:27;;;;;;;;;;;6.60;99.90;;;;;;5055007;28;20318;-68
2024/03/28 03:57:52;;;;;;;;;;;7.40;99.90;;;;;;5053830;28;19911;-68
2024/03/28 04:00:18;;;;;;;;;;;7.00;99.90;;;;;;5054433;28;19906;-67
2024/03/28 04:02:43;;;;;;;;;;;6.40;99.90;;;;;;5054070;28;19999;-68
2024/03/28 04:05:09;;;;;;;;;;;6.40;99.90;;;;;;5054881;28;19951;-68
2024/03/28 04:07:34;;;;;;;;;;;7.10;99.90;;;;;;5054421;28;19909;-68
2024/03/28 04:10:00;;;;;;;;;;;6.50;99.90;;;;;;5054349;28;19928;-67
2024/03/28 04:12:25;;;;;;;;;;;6.50;99.90;;;;;;5054281;28;19927;-68
2024/03/28 04:14:51;;;;;;;;;;;6.60;99.90;;;;;;5054487;28;19974;-67
2024/03/28 04:17:17;;;;;;;;;;;7.30;99.90;;;;;;5053994;28;20308;-67
2024/03/28 04:19:43;;;;;;;;;;;6.60;99.90;;;;;;5054414;28;19905;-67
2024/03/28 04:22:08;;;;;;;;;;;6.70;99.90;;;;;;5054445;28;20414;-67
2024/03/28 04:24:34;;;;;;;;;;;6.60;99.90;;;;;;5054418;28;19995;-67
2024/03/28 04:26:59;;;;;;;;;;;7.30;99.90;;;;;;5054033;28;19931;-67
2024/03/28 04:29:25;;;;;;;;;;;6.80;99.90;;;;;;5054222;28;19913;-67
2024/03/28 04:31:51;;;;;;;;;;;7.00;99.90;;;;;;5054198;28;19913;-67
2024/03/28 04:34:17;;;;;;;;;;;7.70;99.90;;;;;;5054195;28;19905;-67
2024/03/28 04:36:42;;;;;;;;;;;7.30;99.90;;;;;;5053796;28;19905;-67
2024/03/28 04:39:08;;;;;;;;;;;7.50;99.90;;;;;;5053524;28;19911;-67
2024/03/28 04:41:33;;;;;;;;;;;7.50;99.90;;;;;;5054051;28;20349;-67
2024/03/28 04:43:59;;;;;;;;;;;7.40;99.90;;;;;;5054069;28;19904;-68
2024/03/28 04:46:24;;;;;;;;;;;7.00;99.90;;;;;;5053693;28;19911;-68
2024/03/28 04:48:49;;;;;;;;;;;7.60;99.90;;;;;;5054407;28;19928;-67
2024/03/28 04:51:16;;;;;;;;;;;7.20;99.20;;;;;;5053752;28;20399;-67
2024/03/28 04:53:41;;;;;;;;;;;8.00;99.60;;;;;;5053883;28;19995;-68
2024/03/28 04:56:07;;;;;;;;;;;7.60;98.40;;;;;;5053718;28;19951;-68
2024/03/28 04:58:32;;;;;;;;;;;7.70;97.60;;;;;;5053439;28;19946;-67
2024/03/28 05:00:58;;;;;;;;;;;7.30;97.10;;;;;;5053748;28;19950;-67
2024/03/28 05:03:23;;;;;;;;;;;7.30;95.30;;;;;;5053886;28;19904;-68
2024/03/28 05:05:49;;;;;;;;;;;7.90;94.80;;;;;;5053658;28;19909;-67
2024/03/28 05:08:16;;;;;;;;;;;6.90;93.60;;;;;;5053257;28;19996;-68
2024/03/28 05:10:41;;;;;;;;;;;7.60;94.80;;;;;;5053753;28;20281;-68
2024/03/28 05:13:07;;;;;;;;;;;7.40;96.30;;;;;;5053879;28;19911;-68
2024/03/28 05:15:32;;;;;;;;;;;6.90;96.90;;;;;;5054107;28;19911;-68
2024/03/28 05:17:58;;;;;;;;;;;6.80;98.40;;;;;;5053519;28;19916;-68
2024/03/28 05:20:24;;;;;;;;;;;6.70;99.90;;;;;;5053927;28;19962;-68
2024/03/28 05:22:49;;;;;;;;;;;6.90;99.90;;;;;;5053982;28;19949;-68
2024/03/28 05:25:15;;;;;;;;;;;6.80;99.90;;;;;;5053930;28;19991;-68
2024/03/28 05:27:40;;;;;;;;;;;6.20;99.90;;;;;;5053462;28;19955;-68
2024/03/28 05:30:06;;;;;;;;;;;6.40;99.90;;;;;;5053105;28;20374;-68
2024/03/28 05:32:31;;;;;;;;;;;6.30;99.90;;;;;;5053071;28;20392;-68
2024/03/28 05:34:57;;;;;;;;;;;6.10;99.90;;;;;;5053001;28;20407;-68
2024/03/28 05:37:23;;;;;;;;;;;6.10;99.90;;;;;;5052590;28;19999;-68
2024/03/28 05:39:49;;;;;;;;;;;6.20;99.90;;;;;;5052818;28;19901;-68
2024/03/28 05:42:14;;;;;;;;;;;6.60;99.90;;;;;;5052887;28;19905;-68
2024/03/28 05:44:40;;;;;;;;;;;6.70;99.90;;;;;;5052806;28;19928;-68
2024/03/28 05:47:05;;;;;;;;;;;6.40;99.90;;;;;;5052609;28;19905;-68
2024/03/28 05:49:31;;;;;;;;;;;6.50;99.90;;;;;;5051482;28;20364;-68
2024/03/28 05:51:56;;;;;;;;;;;6.70;99.90;;;;;;5052677;28;19999;-68
2024/03/28 05:54:22;;;;;;;;;;;6.80;99.90;;;;;;5052357;28;19908;-68
2024/03/28 05:56:48;;;;;;;;;;;7.30;98.80;;;;;;5051990;28;19935;-68
2024/03/28 05:59:14;;;;;;;;;;;6.90;96.50;;;;;;5050143;28;19962;-68
2024/03/28 06:01:39;;;;;;;;;;;7.00;92.80;;;;;;5052371;28;20004;-68
2024/03/28 06:04:04;;;;;;;;;;;7.50;91.10;;;;;;5052255;28;20034;-67
2024/03/28 06:06:30;;;;;;;;;;;7.30;86.20;;;;;;5051213;28;19908;-67
2024/03/28 06:08:55;;;;;;;;;;;7.70;79.10;;;;;;5052202;28;20368;-67
2024/03/28 06:11:21;;;;;;;;;;;7.90;76.40;;;;;;5052444;28;19962;-67
2024/03/28 06:13:46;;;;;;;;;;;7.90;72.90;;;;;;5052084;28;19905;-67
2024/03/28 06:16:12;;;;;;;;;;;7.60;68.40;;;;;;5052345;28;19905;-67
2024/03/28 06:18:37;;;;;;;;;;;7.80;65.40;;;;;;5053370;28;20419;-68
2024/03/28 06:21:04;;;;;;;;;;;8.00;65.10;;;;;;5065314;28;20317;-68
2024/03/28 06:23:29;;;;;;;;;;;7.90;59.80;;;;;;5051784;28;20398;-68
2024/03/28 06:25:55;;;;;;;;;;;8.50;60.30;;;;;;5057389;28;19915;-68
2024/03/28 06:28:21;;;;;;;;;;;8.10;64.60;;;;;;5051695;28;19915;-68
2024/03/28 06:30:53;;;;;;;;;;;8.10;70.30;;;;;;5052061;28;20510;-68
2024/03/28 06:33:19;;;;;;;;;;;8.00;74.30;;;;;;5052434;28;19912;-68
2024/03/28 06:35:44;;;;;;;;;;;8.10;74.80;;;;;;5053705;28;19962;-68
2024/03/28 06:38:10;;;;;;;;;;;8.50;77.90;;;;;;5052406;28;19909;-68
2024/03/28 06:40:35;;;;;;;;;;;8.50;71.50;;;;;;5052493;28;20330;-68
2024/03/28 06:43:01;;;;;;;;;;;8.10;71.80;;;;;;5051507;28;19951;-68
2024/03/28 06:45:26;;;;;;;;;;;8.20;68.40;;;;;;5051325;28;19905;-68
2024/03/28 06:47:52;;;;;;;;;;;8.80;56.10;;;;;;5051539;28;19999;-68
2024/03/28 06:50:17;;;;;;;;;;;8.70;55.90;;;;;;5051165;28;20000;-69
2024/03/28 06:52:42;;;;;;;;;;;8.60;56.60;;;;;;5051116;28;20438;-69
2024/03/28 06:55:08;;;;;;;;;;;8.30;60.90;;;;;;5051785;28;19911;-69
2024/03/28 06:57:34;;;;;;;;;;;8.30;97.30;;;;;;5052639;28;20378;-68
2024/03/28 06:59:59;;;;;;;;;;;8.40;68.10;;;;;;5053950;28;19909;-68
2024/03/28 07:02:25;;;;;;;;;;;8.30;71.80;;;;;;5057060;28;20126;-68
2024/03/28 07:04:50;;;;;;;;;;;8.70;66.70;;;;;;5055698;28;19909;-69
2024/03/28 07:07:15;;;;;;;;;;;8.90;51.90;;;;;;5055547;28;19904;-69
2024/03/28 07:09:41;;;;;;;;;;;8.80;44.80;;;;;;5055695;28;19905;-68
2024/03/28 07:12:06;;;;;;;;;;;8.70;35.50;;;;;;5055535;28;20003;-69
2024/03/28 07:14:33;;;;;;;;;;;8.50;37.80;;;;;;5055674;28;19905;-69
2024/03/28 07:16:58;;;;;;;;;;;9.00;38.20;;;;;;5055593;28;19962;-68
2024/03/28 07:19:24;;;;;;;;;;;8.50;40.30;;;;;;5057366;28;20291;-68
2024/03/28 07:21:50;;;;;;;;;;;8.70;47.80;;;;;;5058438;28;19909;-68
2024/03/28 07:24:15;;;;;;;;;;;8.70;49.40;;;;;;5058566;28;19905;-68
2024/03/28 07:26:41;;;;;;;;;;;8.70;49.90;;;;;;5057110;28;19923;-68
2024/03/28 07:29:08;;;;;;;;;;;8.70;46.00;;;;;;5057207;28;20306;-68
2024/03/28 07:31:33;;;;;;;;;;;8.40;41.90;;;;;;5057029;28;20388;-69
2024/03/28 07:33:59;;;;;;;;;;;8.80;50.40;;;;;;5056091;28;19940;-68
2024/03/28 07:36:26;;;;;;;;;;;8.80;52.70;;;;;;5055237;28;19987;-68
2024/03/28 07:38:52;;;;;;;;;;;8.70;53.10;;;;;;5055199;28;20399;-68
2024/03/28 07:41:18;;;;;;;;;;;8.70;49.10;;;;;;5055060;28;19948;-68
2024/03/28 07:43:43;;;;;;;;;;;8.50;44.90;;;;;;5055191;28;19905;-69
2024/03/28 07:46:09;;;;;;;;;;;8.50;44.50;;;;;;5055106;28;19908;-69
2024/03/28 07:48:34;;;;;;;;;;;8.50;43.90;;;;;;5054609;28;19905;-69
2024/03/28 07:51:00;;;;;;;;;;;8.70;40.90;;;;;;5054634;28;19916;-69
2024/03/28 07:53:30;;;;;;;;;;;8.50;39.00;;;;;;5054563;28;20034;-69
2024/03/28 07:55:56;;;;;;;;;;;8.50;39.20;;;;;;5054770;28;19999;-69
2024/03/28 07:58:21;;;;;;;;;;;8.50;45.10;;;;;;5055962;28;19948;-69
2024/03/28 08:00:50;;;;;;;;;;;8.50;45.00;;;;;;5056135;28;20382;-69
2024/03/28 08:03:18;;;;;;;;;;;8.50;43.80;;;;;;5051292;28;19905;-68
2024/03/28 08:05:46;;;;;;;;;;;8.50;40.90;;;;;;5054417;28;20283;-69
2024/03/28 08:08:12;;;;;;;;;;;8.50;40.00;;;;;;5051360;28;19970;-69
2024/03/28 08:10:38;;;;;;;;;;;8.50;44.30;;;;;;5053973;28;19908;-69
2024/03/28 08:13:04;;;;;;;;;;;8.50;50.30;;;;;;5052917;28;19959;-69
2024/03/28 08:15:31;;;;;;;;;;;8.40;52.00;;;;;;5054164;28;20356;-69
2024/03/28 08:17:58;;;;;;;;;;;8.60;58.10;;;;;;5054013;28;20333;-68
2024/03/28 08:20:24;;;;;;;;;;;8.50;59.90;;;;;;5054320;28;19904;-68
2024/03/28 08:22:50;;;;;;;;;;;8.90;63.10;;;;;;5054664;28;19955;-67
2024/03/28 08:25:16;;;;;;;;;;;8.40;61.70;;;;;;5056117;28;19904;-68
2024/03/28 08:27:41;;;;;;;;;;;8.30;64.70;;;;;;5056213;28;19916;-68
2024/03/28 08:30:07;;;;;;;;;;;8.40;63.00;;;;;;5056882;28;19904;-68
2024/03/28 08:32:33;;;;;;;;;;;8.10;70.80;;;;;;5056478;28;19982;-68
2024/03/28 08:34:58;;;;;;;;;;;8.70;72.70;;;;;;5056426;28;19927;-68
2024/03/28 08:37:24;;;;;;;;;;;8.00;99.90;;;;;;5055606;28;19904;-68
2024/03/28 08:39:50;;;;;;;;;;;8.30;76.70;;;;;;5054443;28;19915;-68
2024/03/28 08:42:16;;;;;;;;;;;8.70;77.40;;;;;;5053923;28;19909;-68
2024/03/28 08:44:42;;;;;;;;;;;8.50;77.00;;;;;;5053975;28;19911;-68
2024/03/28 08:47:08;;;;;;;;;;;8.50;76.10;;;;;;5053670;28;19909;-68
2024/03/28 08:49:33;;;;;;;;;;;8.70;79.50;;;;;;5053766;28;20346;-69
2024/03/28 08:51:59;;;;;;;;;;;8.70;83.00;;;;;;5053820;28;19909;-68
2024/03/28 08:54:25;;;;;;;;;;;8.30;82.10;;;;;;5053859;28;20288;-68
2024/03/28 08:56:50;;;;;;;;;;;8.40;75.50;;;;;;5053450;28;19943;-68
2024/03/28 08:59:19;;;;;;;;;;;8.90;76.10;;;;;;5053566;28;20330;-68
2024/03/28 09:01:45;;;;;;;;;;;8.60;75.60;;;;;;5053931;28;19912;-68
2024/03/28 09:04:14;;;;;;;;;;;8.50;73.70;;;;;;5053494;28;19908;-68
2024/03/28 09:06:39;;;;;;;;;;;8.80;77.10;;;;;;5053478;28;19905;-69
2024/03/28 09:09:07;;;;;;;;;;;9.00;77.80;;;;;;5053537;28;19911;-69
2024/03/28 09:11:33;;;;;;;;;;;9.10;73.20;;;;;;5052966;28;19909;-69
2024/03/28 09:13:58;;;;;;;;;;;9.30;76.20;;;;;;5054719;28;19909;-68
2024/03/28 09:16:26;;;;;;;;;;;9.30;61.50;;;;;;5056373;28;19911;-68
2024/03/28 09:18:51;;;;;;;;;;;9.50;62.00;;;;;;5058176;28;19995;-68
2024/03/28 09:21:16;;;;;;;;;;;9.60;57.60;;;;;;5058354;28;19974;-68
2024/03/28 09:23:42;;;;;;;;;;;9.70;45.30;;;;;;5054619;28;19911;-68
2024/03/28 09:26:08;;;;;;;;;;;9.90;39.90;;;;;;5053010;28;19965;-69
2024/03/28 09:28:34;;;;;;;;;;;9.80;41.80;;;;;;5052920;28;19992;-69
2024/03/28 09:30:59;;;;;;;;;;;9.70;35.10;;;;;;5053028;28;19909;-69
2024/03/28 09:33:25;;;;;;;;;;;9.70;37.80;;;;;;5052802;28;19905;-69
2024/03/28 09:35:52;;;;;;;;;;;9.80;34.40;;;;;;5053156;28;19905;-69
2024/03/28 09:38:18;;;;;;;;;;;9.70;29.50;;;;;;5052349;28;19909;-69
2024/03/28 09:40:54;;;;;;;;;;;9.70;31.80;;;;;;5052236;28;20003;-69
2024/03/28 09:43:19;;;;;;;;;;;9.70;33.20;;;;;;5050196;28;19955;-69
2024/03/28 09:45:45;;;;;;;;;;;9.70;30.90;;;;;;5052705;28;20372;-69
2024/03/28 09:48:16;;;;;;;;;;;9.70;30.30;;;;;;5052244;28;19911;-69
2024/03/28 09:50:42;;;;;;;;;;;9.70;30.00;;;;;;5052681;28;19931;-69
2024/03/28 09:53:09;;;;;;;;;;;9.70;23.60;;;;;;5052669;28;19905;-69
2024/03/28 09:55:35;;;;;;;;;;;9.50;23.00;;;;;;5052469;28;20467;-69
2024/03/28 09:58:03;;;;;;;;;;;9.50;29.20;;;;;;5052313;28;19999;-69
2024/03/28 10:00:29;;;;;;;;;;;9.50;47.00;;;;;;5052671;28;19908;-68
2024/03/28 10:03:04;;;;;;;;;;;9.10;88.60;;;;;;5052706;28;20014;-68
2024/03/28 10:05:29;;;;;;;;;;;8.30;99.90;;;;;;5052713;28;20120;-68
2024/03/28 10:07:55;;;;;;;;;;;8.40;99.90;;;;;;5052082;28;19905;-69
2024/03/28 10:10:22;;;;;;;;;;;8.60;99.90;;;;;;5052214;28;19932;-69
2024/03/28 10:12:51;;;;;;;;;;;8.40;99.90;;;;;;5052387;28;19905;-69
2024/03/28 10:15:16;;;;;;;;;;;8.40;99.90;;;;;;5052240;28;19908;-73
2024/03/28 10:17:42;;;;;;;;;;;8.80;99.90;;;;;;5049189;28;19919;-70
2024/03/28 10:20:10;;;;;;;;;;;8.90;93.90;;;;;;5052253;28;19912;-68
2024/03/28 10:22:42;;;;;;;;;;;9.10;71.20;;;;;;5052104;28;19927;-67
2024/03/28 10:25:21;;;;;;;;;;;9.30;60.10;;;;;;5051911;28;19905;-67
2024/03/28 10:27:47;;;;;;;;;;;9.60;48.40;;;;;;5051888;28;19905;-68
2024/03/28 10:30:23;;;;;;;;;;;9.80;45.50;;;;;;5052033;28;19912;-68
2024/03/28 10:32:59;;;;;;;;;;;9.90;26.70;;;;;;5051903;28;19911;-70
2024/03/28 10:35:25;;;;;;;;;;;10.00;27.70;;;;;;5051528;28;20345;-67
2024/03/28 10:38:00;;;;;;;;;;;10.00;19.60;;;;;;5051809;28;20383;-68
2024/03/28 10:40:27;;;;;;;;;;;10.00;22.80;;;;;;5051878;28;19905;-68
2024/03/28 10:42:54;;;;;;;;;;;10.00;21.60;;;;;;5052101;28;19912;-66
2024/03/28 10:45:23;;;;;;;;;;;10.00;18.10;;;;;;5051764;28;19936;-66
2024/03/28 10:47:51;;;;;;;;;;;10.00;8.40;;;;;;5051280;28;20276;-67
2024/03/28 10:50:22;;;;;;;;;;;10.00;1.00;;;;;;5051290;28;20390;-68
2024/03/28 10:52:50;;;;;;;;;;;10.10;1.00;;;;;;5051653;28;19947;-72
2024/03/28 10:55:18;;;;;;;;;;;10.20;1.00;;;;;;5052268;28;19912;-73
2024/03/28 10:57:44;;;;;;;;;;;10.30;1.00;;;;;;5051812;28;19905;-71
2024/03/28 11:00:11;;;;;;;;;;;10.50;1.00;;;;;;5051776;28;20011;-69
2024/03/28 11:02:37;;;;;;;;;;;10.50;1.00;;;;;;5051681;28;19904;-68
2024/03/28 11:05:06;;;;;;;;;;;10.70;1.00;;;;;;5051916;28;20352;-69
2024/03/28 11:07:33;;;;;;;;;;;11.20;9.80;;;;;;5051532;28;19905;-67
2024/03/28 11:09:59;;;;;;;;;;;11.00;1.00;;;;;;5051597;28;19905;-67
2024/03/28 11:12:25;;;;;;;;;;;11.10;1.00;;;;;;5051502;28;19908;-67
2024/03/28 11:14:58;;;;;;;;;;;11.10;1.00;;;;;;5051756;28;19999;-67
2024/03/28 11:17:24;;;;;;;;;;;11.30;1.00;;;;;;5050365;28;20022;-67
2024/03/28 11:20:03;;;;;;;;;;;11.50;1.00;;;;;;5049834;28;20481;-67
2024/03/28 11:22:31;;;;;;;;;;;11.40;1.00;;;;;;5051490;28;20035;-67
2024/03/28 11:24:56;;;;;;;;;;;11.80;1.00;;;;;;5050943;28;19962;-68
2024/03/28 11:27:22;;;;;;;;;;;12.40;1.00;;;;;;5050151;28;19913;-67
2024/03/28 11:29:47;;;;;;;;;;;12.60;1.00;;;;;;5051486;28;19999;-67
2024/03/28 11:32:21;;;;;;;;;;;12.70;1.00;;;;;;5050653;28;19908;-67
2024/03/28 11:34:46;;;;;;;;;;;13.00;1.00;;;;;;5050800;28;19905;-67
2024/03/28 11:37:19;;;;;;;;;;;12.80;1.00;;;;;;5050635;28;19911;-67
2024/03/28 11:39:44;;;;;;;;;;;12.80;1.00;;;;;;5049846;28;19904;-67
2024/03/28 11:42:18;;;;;;;;;;;13.00;1.00;;;;;;5050799;28;20284;-68
2024/03/28 11:44:44;;;;;;;;;;;13.20;1.00;;;;;;5051463;28;20365;-69
2024/03/28 11:47:10;;;;;;;;;;;13.50;1.00;;;;;;5051451;28;19915;-69
2024/03/28 11:49:36;;;;;;;;;;;13.50;1.00;;;;;;5054976;28;20353;-69
2024/03/28 11:52:04;;;;;;;;;;;13.70;1.00;;;;;;5054658;28;19909;-69
2024/03/28 11:54:30;;;;;;;;;;;13.90;1.00;;;;;;5054608;28;19911;-68
2024/03/28 11:56:55;;;;;;;;;;;14.10;1.00;;;;;;5054397;28;20335;-69
2024/03/28 11:59:21;;;;;;;;;;;14.90;1.00;;;;;;5054129;28;19904;-68
2024/03/28 12:01:47;;;;;;;;;;;15.30;1.00;;;;;;5054412;28;20352;-69
2024/03/28 12:04:29;;;;;;;;;;;15.40;1.00;;;;;;5055146;28;20011;-69
2024/03/28 12:06:57;;;;;;;;;;;14.90;1.00;;;;;;5055535;28;19999;-69
2024/03/28 12:09:22;;;;;;;;;;;14.30;1.00;;;;;;5055611;28;20011;-69
2024/03/28 12:11:47;;;;;;;;;;;13.70;1.00;;;;;;5055450;28;19971;-69
2024/03/28 12:14:20;;;;;;;;;;;13.50;1.00;;;;;;5056021;28;20002;-69
2024/03/28 12:16:46;;;;;;;;;;;13.80;1.00;;;;;;5055215;28;20261;-69
2024/03/28 12:19:13;;;;;;;;;;;14.30;1.00;;;;;;5055894;28;19912;-69
2024/03/28 12:21:42;;;;;;;;;;;14.40;1.00;;;;;;5055681;28;19944;-69
2024/03/28 12:24:08;;;;;;;;;;;14.10;1.00;;;;;;5054221;28;19904;-69
2024/03/28 12:26:34;;;;;;;;;;;13.70;1.00;;;;;;5055590;28;19905;-69
2024/03/28 12:28:59;;;;;;;;;;;13.50;1.00;;;;;;5055713;28;20379;-69
2024/03/28 12:31:25;;;;;;;;;;;13.50;1.00;;;;;;5053895;28;19923;-69
2024/03/28 12:33:51;;;;;;;;;;;13.40;1.00;;;;;;5055666;28;19905;-69
2024/03/28 12:36:17;;;;;;;;;;;13.10;1.00;;;;;;5055498;28;19958;-69
2024/03/28 12:38:46;;;;;;;;;;;13.20;1.00;;;;;;5054333;28;19905;-69
2024/03/28 12:41:17;;;;;;;;;;;12.90;1.00;;;;;;5055338;28;19905;-69
2024/03/28 12:43:42;;;;;;;;;;;13.00;1.00;;;;;;5055738;28;19905;-69
2024/03/28 12:46:08;;;;;;;;;;;13.10;1.00;;;;;;5055246;28;19911;-69
2024/03/28 12:48:34;;;;;;;;;;;13.30;1.00;;;;;;5055282;28;20428;-69
2024/03/28 12:50:59;;;;;;;;;;;13.10;1.00;;;;;;5054798;28;19919;-69
2024/03/28 12:53:25;;;;;;;;;;;13.50;1.00;;;;;;5054741;28;19913;-69
2024/03/28 12:55:50;;;;;;;;;;;13.80;1.00;;;;;;5054835;28;19912;-69
2024/03/28 12:58:16;;;;;;;;;;;13.90;1.00;;;;;;5053829;28;19904;-69
2024/03/28 13:00:41;;;;;;;;;;;14.00;1.00;;;;;;5054572;28;19944;-69
2024/03/28 13:03:06;;;;;;;;;;;14.30;1.00;;;;;;5054783;28;19905;-69
2024/03/28 13:05:32;;;;;;;;;;;14.80;1.00;;;;;;5054420;28;19904;-69
2024/03/28 13:07:58;;;;;;;;;;;15.20;1.00;;;;;;5054118;28;19991;-69
2024/03/28 13:10:23;;;;;;;;;;;15.60;1.00;;;;;;5054760;28;19908;-69
2024/03/28 13:12:49;;;;;;;;;;;16.20;1.00;;;;;;5054156;28;19916;-69
2024/03/28 13:15:14;;;;;;;;;;;16.50;1.00;;;;;;5054506;28;20427;-69
2024/03/28 13:17:40;;;;;;;;;;;16.90;1.00;;;;;;5054350;28;19917;-69
2024/03/28 13:20:08;;;;;;;;;;;17.00;1.00;;;;;;5054628;28;20272;-69
2024/03/28 13:22:34;;;;;;;;;;;17.40;1.00;;;;;;5054910;28;19905;-69
2024/03/28 13:24:59;;;;;;;;;;;17.80;1.00;;;;;;5055038;28;19999;-69
2024/03/28 13:27:25;;;;;;;;;;;17.80;1.00;;;;;;5053902;28;19904;-69
2024/03/28 13:29:51;;;;;;;;;;;18.00;1.00;;;;;;5054557;28;19904;-69
2024/03/28 13:32:16;;;;;;;;;;;18.10;1.00;;;;;;5054834;28;19909;-69
2024/03/28 13:34:42;;;;;;;;;;;18.10;1.00;;;;;;5054249;28;20417;-69
2024/03/28 13:37:08;;;;;;;;;;;17.40;1.00;;;;;;5054404;28;19904;-69
2024/03/28 13:39:34;;;;;;;;;;;17.00;1.00;;;;;;5054000;28;20379;-69
2024/03/28 13:41:59;;;;;;;;;;;16.80;1.00;;;;;;5054325;28;19905;-69
2024/03/28 13:44:25;;;;;;;;;;;16.70;1.00;;;;;;5053855;28;19909;-69
2024/03/28 13:46:51;;;;;;;;;;;17.10;1.00;;;;;;5052897;28;19913;-69
2024/03/28 13:49:23;;;;;;;;;;;16.80;1.00;;;;;;5052820;28;19905;-68
2024/03/28 13:51:48;;;;;;;;;;;16.40;1.00;;;;;;5052162;28;20284;-71
2024/03/28 13:54:14;;;;;;;;;;;15.80;1.00;;;;;;5045572;28;19908;-67
2024/03/28 13:56:39;;;;;;;;;;;15.10;1.00;;;;;;5052366;28;20006;-69
2024/03/28 13:59:05;;;;;;;;;;;15.00;1.00;;;;;;5051366;28;19908;-69
2024/03/28 14:01:31;;;;;;;;;;;15.20;1.00;;;;;;5051838;28;19908;-67
2024/03/28 14:03:58;;;;;;;;;;;15.20;1.00;;;;;;5051087;28;20350;-68
2024/03/28 14:06:24;;;;;;;;;;;15.00;1.00;;;;;;5051333;28;19916;-69
2024/03/28 14:08:49;;;;;;;;;;;14.80;1.00;;;;;;5052030;28;19908;-69
2024/03/28 14:11:18;;;;;;;;;;;14.50;1.00;;;;;;5050514;28;20384;-69
2024/03/28 14:13:44;;;;;;;;;;;14.50;1.00;;;;;;5051465;28;19957;-68
2024/03/28 14:16:09;;;;;;;;;;;14.70;1.00;;;;;;5051905;28;19908;-68
2024/03/28 14:18:35;;;;;;;;;;;14.80;1.00;;;;;;5051309;28;19928;-67
2024/03/28 14:21:01;;;;;;;;;;;14.90;1.00;;;;;;5051298;28;19971;-68
2024/03/28 14:23:26;;;;;;;;;;;14.70;1.00;;;;;;5051314;28;19915;-68
2024/03/28 14:26:01;;;;;;;;;;;14.60;1.00;;;;;;5051233;28;19970;-69
2024/03/28 14:28:27;;;;;;;;;;;14.20;1.00;;;;;;5051003;28;19913;-68
2024/03/28 14:30:53;;;;;;;;;;;14.00;1.00;;;;;;5051311;28;19913;-68
2024/03/28 14:33:19;;;;;;;;;;;13.70;1.00;;;;;;5051183;28;20034;-69